Time;durP1;ratioP1;P1;durP2;ratioP2;P2;SDS_P1;SDS_P2;PMS_P1;PMS_P2;Temp;Humidity;BMP_temperature;BMP_pressure;BME280_temperature;BME280_humidity;BME280_pressure;Samples;Min_cycle;Max_cycle;Signal;HPM_P1;HPM_P2
2021/04/08 00:03:59;;;;;;;9.57;6.60;;;;;;;5.61;87.01;100213.19;6161259;23;20020;-81
2021/04/08 00:06:41;;;;;;;8.18;5.70;;;;;;;5.19;87.28;100220.06;6134291;23;20352;-81
2021/04/08 00:09:07;;;;;;;;;;;;;;;5.34;84.74;100226.75;6134409;23;20113;-79
2021/04/08 00:11:56;;;;;;;7.93;6.13;;;;;;;5.20;83.21;100229.31;6133406;23;19924;-81
2021/04/08 00:14:40;;;;;;;8.57;5.88;;;;;;;5.26;80.62;100234.34;6133896;23;20102;-81
2021/04/08 00:17:15;;;;;;;8.55;5.88;;;;;;;5.04;81.40;100234.38;6134217;23;20037;-82
2021/04/08 00:20:37;;;;;;;9.38;6.07;;;;;;;4.95;81.13;100237.72;6134026;23;20080;-81
2021/04/08 00:23:32;;;;;;;11.27;6.55;;;;;;;5.27;80.89;100258.69;6134860;23;20010;-80
2021/04/08 00:26:02;;;;;;;9.23;6.18;;;;;;;5.19;82.15;100270.44;6135034;23;20106;-80
2021/04/08 00:29:06;;;;;;;9.05;6.30;;;;;;;5.18;83.13;100262.91;6135195;23;20002;-81
2021/04/08 00:31:43;;;;;;;8.20;6.28;;;;;;;5.04;82.60;100242.78;6135410;23;20107;-81
2021/04/08 00:34:10;;;;;;;8.00;6.13;;;;;;;5.14;81.79;100248.63;6135885;23;20032;-81
2021/04/08 00:36:44;;;;;;;9.93;6.85;;;;;;;5.10;82.46;100252.84;6135022;23;20019;-81
2021/04/08 00:39:38;;;;;;;9.40;6.28;;;;;;;5.08;82.63;100243.59;6134705;23;20037;-82
2021/04/08 00:42:33;;;;;;;8.50;6.50;;;;;;;4.79;84.40;100225.19;6160833;23;20016;-81
2021/04/08 00:45:12;;;;;;;10.38;6.60;;;;;;;4.64;84.36;100220.13;6135149;23;20009;-82
2021/04/08 00:47:44;;;;;;;10.38;6.22;;;;;;;4.66;86.13;100221.81;6134400;23;20146;-82
2021/04/08 00:50:14;;;;;;;8.73;7.07;;;;;;;4.90;85.48;100213.41;6134423;23;20338;-82
2021/04/08 00:53:08;;;;;;;8.63;6.43;;;;;;;4.67;88.52;100202.53;6135042;23;20268;-82
2021/04/08 00:55:41;;;;;;;9.10;6.68;;;;;;;4.72;88.66;100214.25;6134655;23;20005;-79
2021/04/08 00:58:10;;;;;;;8.43;6.53;;;;;;;4.89;87.06;100211.72;6134142;23;20016;-79
2021/04/08 01:04:08;;;;;;;5.17;4.27;;;;;;;4.96;86.41;100188.19;6162551;23;20028;-79
2021/04/08 01:06:39;;;;;;;9.82;6.43;;;;;;;4.94;86.18;100174.78;6134719;23;20073;-81
2021/04/08 01:09:31;;;;;;;10.23;6.80;;;;;;;5.07;87.37;100176.44;6181251;23;20013;-82
2021/04/08 01:12:15;;;;;;;8.43;6.47;;;;;;;4.96;86.39;100199.13;6190912;23;20035;-79
2021/04/08 01:14:52;;;;;;;8.55;6.25;;;;;;;4.89;86.14;100187.38;6164395;22;20510;-79
2021/04/08 01:18:00;;;;;;;9.23;6.20;;;;;;;5.02;87.61;100170.56;6191031;23;20009;-78
2021/04/08 01:21:16;;;;;;;9.55;5.90;;;;;;;4.99;88.55;100163.03;6164746;23;20005;-78
2021/04/08 01:27:31;;;;;;;13.38;6.78;;;;;;;4.73;86.03;100175.66;6190901;23;20125;-80
2021/04/08 01:30:17;;;;;;;;;;;;;;;4.51;88.27;100179.03;6191637;23;20110;-79
2021/04/08 01:32:55;;;;;;;8.02;5.18;;;;;;;4.66;87.38;100158.03;6164763;23;20124;-79
2021/04/08 01:35:34;;;;;;;6.95;5.05;;;;;;;4.65;88.35;100158.88;6190551;23;20028;-77
2021/04/08 01:38:13;;;;;;;8.13;5.47;;;;;;;4.83;88.08;100164.72;6192717;23;20012;-79
2021/04/08 01:40:41;;;;;;;7.70;5.45;;;;;;;4.48;89.84;100161.41;6164344;23;20005;-78
2021/04/08 01:43:25;;;;;;;9.43;6.03;;;;;;;4.63;90.16;100161.41;6190764;23;20013;-80
2021/04/08 01:46:16;;;;;;;13.68;6.72;;;;;;;4.74;92.66;100177.31;6165014;23;20009;-81
2021/04/08 01:48:58;;;;;;;13.35;6.93;;;;;;;4.60;91.67;100156.38;6190444;23;20013;-78
2021/04/08 01:51:34;;;;;;;10.90;6.75;;;;;;;4.96;89.96;100178.13;6190476;23;20005;-78
2021/04/08 01:54:19;;;;;;;9.65;6.13;;;;;;;4.99;91.21;100183.97;6190961;23;20008;-77
2021/04/08 01:57:16;;;;;;;11.43;6.82;;;;;;;5.00;91.42;100185.69;6190378;23;20008;-78
2021/04/08 02:03:05;;;;;;;5.87;4.27;;;;;;;4.96;90.66;100194.09;6191224;23;20023;-77
2021/04/08 02:05:38;;;;;;;7.47;5.45;;;;;;;4.65;94.45;100204.19;6190184;23;20282;-77
2021/04/08 02:08:05;;;;;;;8.13;5.90;;;;;;;4.96;93.58;100224.31;6157535;23;20072;-78
2021/04/08 02:10:40;;;;;;;9.48;5.80;;;;;;;4.49;93.87;100231.06;6160949;23;20110;-77
2021/04/08 02:13:41;;;;;;;8.15;5.40;;;;;;;4.72;93.64;100229.38;6135489;23;20020;-78
2021/04/08 02:16:08;;;;;;;8.53;4.30;;;;;;;4.66;94.58;100219.28;6160397;23;20024;-81
2021/04/08 02:18:49;;;;;;;8.32;5.85;;;;;;;4.27;94.82;100207.56;6160653;23;20005;-78
2021/04/08 02:21:28;;;;;;;6.82;4.13;;;;;;;4.71;95.35;100222.66;6160980;23;20013;-81
2021/04/08 02:28:03;;;;;;;9.15;6.32;;;;;;;4.77;93.52;100240.28;6160434;23;20020;-80
2021/04/08 02:31:16;;;;;;;10.30;5.97;;;;;;;4.79;93.76;100236.09;6134343;23;20005;-80
2021/04/08 02:34:06;;;;;;;10.25;6.22;;;;;;;4.89;92.42;100237.72;6134848;23;20030;-80
2021/04/08 02:40:09;;;;;;;8.00;5.88;;;;;;;5.05;90.15;100254.50;6161589;23;20020;-80
2021/04/08 02:42:42;;;;;;;9.40;6.55;;;;;;;5.00;89.97;100247.81;6160286;23;20051;-80
2021/04/08 02:45:26;;;;;;;9.70;6.25;;;;;;;5.27;91.42;100250.25;6160337;23;20079;-79
2021/04/08 02:48:10;;;;;;;7.20;5.32;;;;;;;5.09;89.15;100237.72;6134583;23;20016;-79
2021/04/08 02:51:19;;;;;;;7.85;5.93;;;;;;;5.43;88.35;100249.38;6160775;23;20280;-79
2021/04/08 02:53:52;;;;;;;8.18;5.90;;;;;;;5.25;90.01;100254.47;6134925;23;20017;-80
2021/04/08 02:57:00;;;;;;;9.13;5.85;;;;;;;5.25;90.68;100251.94;6160585;23;20174;-79
2021/04/08 02:59:29;;;;;;;7.97;6.30;;;;;;;5.18;90.84;100228.47;6134627;23;20102;-80
2021/04/08 03:02:30;;;;;;;8.20;6.30;;;;;;;5.43;90.75;100262.00;6134085;23;20098;-78
2021/04/08 03:05:29;;;;;;;10.32;6.88;;;;;;;5.13;89.81;100267.94;6160427;23;20020;-78
2021/04/08 03:07:57;;;;;;;13.27;8.98;;;;;;;4.76;92.28;100257.91;6137916;23;20052;-78
2021/04/08 03:13:46;;;;;;;9.95;6.50;;;;;;;4.72;92.33;100254.53;6189197;23;20279;-79
2021/04/08 03:16:21;;;;;;;8.98;6.90;;;;;;;5.04;92.22;100275.53;6189519;23;20021;-78
2021/04/08 03:19:07;;;;;;;8.75;6.88;;;;;;;4.99;93.77;100269.63;6189655;23;20101;-77
2021/04/08 03:25:14;;;;;;;8.23;6.05;;;;;;;5.18;93.00;100275.50;6189923;23;20024;-79
2021/04/08 03:27:43;;;;;;;10.38;7.32;;;;;;;4.77;95.24;100274.69;6163600;23;20017;-78
2021/04/08 03:30:15;;;;;;;10.10;7.35;;;;;;;4.62;94.04;100267.97;6190896;23;20045;-79
2021/04/08 03:32:56;;;;;;;12.75;8.20;;;;;;;4.72;92.66;100279.72;6163562;23;20013;-78
2021/04/08 03:35:37;;;;;;;11.10;7.75;;;;;;;4.83;94.69;100290.63;6163322;23;20048;-78
2021/04/08 03:44:46;;;;;;;10.90;7.50;;;;;;;4.83;96.65;100288.09;6190401;23;20288;-79
2021/04/08 03:47:36;;;;;;;11.55;7.53;;;;;;;5.09;95.67;100296.50;6189855;23;20029;-80
2021/04/08 03:50:19;;;;;;;9.88;7.18;;;;;;;4.84;95.39;100304.06;6163806;23;20024;-85
2021/04/08 03:56:08;;;;;;;11.15;7.20;;;;;;;5.18;93.97;100299.03;6189504;23;20012;-80
2021/04/08 03:58:47;;;;;;;11.35;6.97;;;;;;;5.15;93.45;100308.28;6159896;23;20009;-76
2021/04/08 04:01:45;;;;;;;12.25;7.07;;;;;;;4.92;92.36;100320.00;6162625;23;20012;-77
2021/04/08 04:04:15;;;;;;;9.13;6.90;;;;;;;5.11;93.70;100309.94;6161678;23;20258;-77
2021/04/08 04:07:05;;;;;;;11.77;7.78;;;;;;;5.09;88.21;100316.66;6162795;23;20016;-77
2021/04/08 04:09:37;;;;;;;17.33;11.15;;;;;;;5.02;89.85;100302.38;6162275;22;20364;-84
2021/04/08 04:12:20;;;;;;;17.08;11.43;;;;;;;5.23;85.70;100314.13;6161683;23;20440;-81
2021/04/08 04:14:48;;;;;;;15.15;10.18;;;;;;;5.48;84.10;100323.34;6163407;23;20062;-74
2021/04/08 04:17:46;;;;;;;13.80;8.70;;;;;;;5.32;77.50;100328.41;6161793;22;20040;-76
2021/04/08 04:20:39;;;;;;;12.65;8.38;;;;;;;5.43;75.09;100354.44;6162191;23;20012;-75
2021/04/08 04:23:09;;;;;;;16.42;10.27;;;;;;;5.54;74.03;100376.28;6162641;23;20012;-75
2021/04/08 04:25:36;;;;;;;14.07;9.45;;;;;;;5.79;74.00;100375.38;6188384;23;20012;-74
2021/04/08 04:31:35;;;;;;;25.30;14.27;;;;;;;5.64;72.71;100379.63;6188980;23;20097;-78
2021/04/08 04:34:35;;;;;;;39.38;17.90;;;;;;;5.54;75.24;100388.03;6189669;23;20228;-78
2021/04/08 04:37:03;;;;;;;24.70;14.18;;;;;;;5.57;73.34;100380.44;6162101;22;20013;-77
2021/04/08 04:39:29;;;;;;;33.45;17.52;;;;;;;5.50;74.46;100373.75;6162193;23;20087;-76
2021/04/08 04:42:04;;;;;;;14.52;9.02;;;;;;;5.45;72.37;100375.44;6188324;23;20017;-78
2021/04/08 04:44:30;;;;;;;30.90;14.30;;;;;;;6.46;81.61;100402.91;6162335;23;20015;-75
2021/04/08 04:47:27;;;;;;;19.80;10.20;;;;;;;5.73;74.13;100405.66;6188594;23;20027;-78
2021/04/08 04:50:11;;;;;;;12.23;8.10;;;;;;;5.62;72.31;100401.47;6163342;22;20028;-77
2021/04/08 04:52:38;;;;;;;11.27;8.20;;;;;;;5.19;71.26;100370.38;6189065;23;20056;-77
2021/04/08 04:55:05;;;;;;;14.32;9.57;;;;;;;5.29;73.32;100377.09;6163844;23;20032;-77
2021/04/08 04:58:23;;;;;;;15.35;10.07;;;;;;;5.60;74.32;100435.94;6162514;23;20012;-77
2021/04/08 05:00:49;;;;;;;17.88;11.77;;;;;;;5.47;72.54;100414.91;6188742;23;20009;-76
2021/04/08 05:06:36;;;;;;;12.87;7.90;;;;;;;5.57;71.94;100421.63;6189122;23;20012;-76
2021/04/08 05:09:02;;;;;;;16.88;11.75;;;;;;;5.68;72.35;100421.63;6163524;23;20037;-76
2021/04/08 05:11:34;;;;;;;28.52;18.30;;;;;;;5.69;71.51;100446.84;6163859;23;20020;-77
2021/04/08 05:14:25;;;;;;;17.88;12.65;;;;;;;5.72;73.10;100439.28;6163941;23;20132;-77
2021/04/08 05:20:01;;;;;;;21.00;13.57;;;;;;;5.88;72.30;100437.63;6191441;23;20013;-75
2021/04/08 05:22:33;;;;;;;16.10;10.88;;;;;;;5.90;71.52;100436.75;6186371;23;20090;-75
2021/04/08 05:24:59;;;;;;;16.65;11.85;;;;;;;5.86;70.88;100444.34;6162548;23;20049;-74
2021/04/08 05:30:46;;;;;;;17.85;11.00;;;;;;;5.71;69.33;100446.84;6189353;23;20020;-75
2021/04/08 05:33:15;;;;;;;20.58;12.52;;;;;;;5.67;69.67;100443.50;6163480;23;20013;-75
2021/04/08 05:35:53;;;;;;;21.15;12.77;;;;;;;5.78;66.09;100446.84;6163330;23;20125;-75
2021/04/08 05:39:04;;;;;;;11.27;8.75;;;;;;;5.78;69.13;100468.72;6163264;23;20263;-74
2021/04/08 05:41:49;;;;;;;16.35;11.48;;;;;;;5.76;69.26;100471.25;6163334;22;20021;-75
2021/04/08 05:44:19;;;;;;;18.25;12.05;;;;;;;5.84;69.97;100476.31;6163285;23;20032;-75
2021/04/08 05:46:53;;;;;;;20.00;12.40;;;;;;;5.76;69.34;100472.91;6189877;23;20049;-74
2021/04/08 05:49:26;;;;;;;18.58;10.93;;;;;;;5.69;67.93;100474.59;6163170;23;20029;-74
2021/04/08 05:52:04;;;;;;;11.25;8.02;;;;;;;5.79;66.41;100463.66;6163041;23;20009;-74
2021/04/08 05:54:41;;;;;;;9.68;7.90;;;;;;;5.63;67.90;100448.53;6163179;23;20101;-74
2021/04/08 05:57:07;;;;;;;12.90;9.30;;;;;;;5.79;68.18;100440.97;6162950;23;20016;-74
2021/04/08 06:00:07;;;;;;;13.07;10.00;;;;;;;6.05;67.31;100463.66;6163395;23;20243;-74
2021/04/08 06:02:38;;;;;;;13.18;9.68;;;;;;;6.04;68.29;100459.47;6162857;22;20009;-75
2021/04/08 06:05:06;;;;;;;16.57;10.30;;;;;;;6.27;68.79;100469.47;6162569;22;20012;-74
2021/04/08 06:07:34;;;;;;;15.10;9.80;;;;;;;6.01;70.13;100477.13;6162694;23;20358;-74
2021/04/08 06:10:05;;;;;;;21.60;14.10;;;;;;;6.11;68.95;100461.97;6162988;22;20017;-75
2021/04/08 06:13:07;;;;;;;14.75;10.65;;;;;;;6.22;68.36;100486.34;6189339;23;20016;-74
2021/04/08 06:15:35;;;;;;;40.10;25.60;;;;;;;6.27;67.75;100487.16;6189683;23;20021;-74
2021/04/08 06:18:04;;;;;;;29.15;16.85;;;;;;;5.98;67.04;100488.03;6163588;22;20005;-74
2021/04/08 06:20:30;;;;;;;13.70;9.70;;;;;;;6.11;67.75;100466.16;6189258;23;20028;-74
2021/04/08 06:22:56;;;;;;;14.48;9.45;;;;;;;6.20;67.11;100465.31;6189565;23;20005;-74
2021/04/08 06:25:34;;;;;;;12.60;8.02;;;;;;;6.06;68.34;100480.50;6189866;23;20020;-74
2021/04/08 06:28:10;;;;;;;12.60;8.15;;;;;;;6.41;67.76;100483.75;6189329;23;20009;-74
2021/04/08 06:30:51;;;;;;;52.55;24.55;;;;;;;6.14;67.89;100471.19;6189202;23;20025;-75
2021/04/08 06:33:45;;;;;;;12.93;9.02;;;;;;;6.21;68.09;100490.53;6163845;22;20362;-76
2021/04/08 06:36:14;;;;;;;15.25;7.95;;;;;;;6.20;66.81;100486.31;6190385;23;20114;-76
2021/04/08 06:39:29;;;;;;;24.98;13.20;;;;;;;6.42;66.52;100498.06;6189255;23;20005;-77
2021/04/08 06:41:57;;;;;;;32.92;16.52;;;;;;;6.75;66.49;100514.78;6162971;22;20012;-76
2021/04/08 06:44:27;;;;;;;45.83;21.75;;;;;;;6.41;68.96;100505.63;6162881;23;20097;-76
2021/04/08 06:50:19;;;;;;;46.40;21.93;;;;;;;6.62;66.99;100496.31;6190000;23;20113;-77
2021/04/08 06:52:57;;;;;;;74.75;32.75;;;;;;;6.63;65.40;100514.84;6189632;23;20220;-76
2021/04/08 06:55:33;;;;;;;37.88;18.60;;;;;;;6.91;66.15;100522.28;6163895;22;20376;-77
2021/04/08 06:58:19;;;;;;;19.58;11.88;;;;;;;6.80;65.92;100513.91;6163512;23;20009;-77
2021/04/08 07:00:49;;;;;;;20.48;13.23;;;;;;;6.91;65.45;100519.75;6189880;23;20101;-77
2021/04/08 07:03:17;;;;;;;18.23;12.00;;;;;;;6.79;65.91;100522.31;6190787;23;20021;-77
2021/04/08 07:05:59;;;;;;;10.75;7.53;;;;;;;6.50;64.91;100506.44;6190085;23;20024;-78
2021/04/08 07:08:28;;;;;;;37.03;17.55;;;;;;;6.83;64.38;100516.41;6159173;23;20052;-78
2021/04/08 07:11:19;;;;;;;30.75;15.70;;;;;;;6.98;63.50;100526.47;6163449;23;20360;-78
2021/04/08 07:14:16;;;;;;;91.47;35.08;;;;;;;6.97;64.01;100524.78;6162681;23;20363;-79
2021/04/08 07:17:22;;;;;;;30.83;14.23;;;;;;;7.24;62.63;100518.75;6189544;23;20013;-78
2021/04/08 07:23:10;;;;;;;24.10;10.98;;;;;;;7.03;62.06;100529.00;6190174;23;20143;-78
2021/04/08 07:26:15;;;;;;;10.50;6.25;;;;;;;7.01;61.10;100534.03;6163401;23;20006;-77
2021/04/08 07:29:09;;;;;;;18.50;8.85;;;;;;;7.15;62.11;100535.66;6163439;22;20019;-78
2021/04/08 07:31:46;;;;;;;27.13;12.80;;;;;;;7.40;62.48;100540.56;6162980;22;20017;-78
2021/04/08 07:34:53;;;;;;;42.65;17.88;;;;;;;7.25;59.65;100538.13;6162509;23;20024;-78
2021/04/08 07:37:28;;;;;;;11.35;7.15;;;;;;;7.82;59.85;100527.59;6163478;22;20005;-78
2021/04/08 07:43:15;;;;;;;60.95;29.88;;;;;;;7.79;60.06;100530.16;6189575;23;20378;-77
2021/04/08 07:46:28;;;;;;;14.80;9.57;;;;;;;7.88;58.85;100546.97;6189288;23;20012;-77
2021/04/08 07:48:55;;;;;;;14.15;9.43;;;;;;;7.83;58.56;100534.34;6162913;22;20012;-79
2021/04/08 07:51:49;;;;;;;9.57;6.72;;;;;;;7.69;58.45;100553.88;6163451;22;20263;-78
2021/04/08 07:55:09;;;;;;;10.32;6.45;;;;;;;7.94;58.17;100558.75;6162961;23;20038;-77
2021/04/08 07:57:56;;;;;;;11.65;7.20;;;;;;;8.30;57.24;100564.34;6162906;22;20009;-78
2021/04/08 08:01:08;;;;;;;8.93;6.28;;;;;;;8.34;57.04;100558.41;6163149;23;20016;-78
2021/04/08 08:03:38;;;;;;;9.43;5.65;;;;;;;8.58;56.81;100540.41;6163415;22;20029;-78
2021/04/08 08:06:11;;;;;;;9.95;6.40;;;;;;;9.27;55.38;100548.84;6162475;23;20033;-78
2021/04/08 08:12:33;;;;;;;8.05;4.85;;;;;;;9.27;55.58;100565.78;6159713;23;20088;-78
2021/04/08 08:15:20;;;;;;;9.27;5.70;;;;;;;9.21;53.95;100578.56;6133600;23;20001;-79
2021/04/08 08:18:02;;;;;;;9.05;6.47;;;;;;;8.77;56.25;100580.78;6133334;23;20010;-79
2021/04/08 08:20:59;;;;;;;;;;;;;;;9.59;54.74;100581.41;6159794;23;20472;-80
2021/04/08 08:24:03;;;;;;;7.20;5.10;;;;;;;8.95;52.98;100585.63;6158226;23;19920;-78
2021/04/08 08:26:47;;;;;;;6.90;5.20;;;;;;;9.16;53.55;100568.47;6157479;22;20054;-78
2021/04/08 08:29:43;;;;;;;7.57;4.93;;;;;;;9.11;53.46;100584.59;6132896;23;20139;-79
2021/04/08 08:32:08;;;;;;;7.38;4.72;;;;;;;9.69;52.58;100575.31;6159021;23;20009;-79
2021/04/08 08:34:49;;;;;;;6.72;5.18;;;;;;;9.32;53.25;100584.31;6133300;23;20374;-77
2021/04/08 08:37:43;;;;;;;8.02;5.60;;;;;;;9.40;51.89;100603.66;6133307;23;20345;-77
2021/04/08 08:40:14;;;;;;;10.73;5.53;;;;;;;9.64;53.84;100584.72;6156428;23;20012;-78
2021/04/08 08:43:00;;;;;;;;;;;;;;;9.83;53.68;100597.97;6134008;23;20009;-79
2021/04/08 08:45:56;;;;;;;7.63;4.70;;;;;;;9.14;53.83;100612.44;6159767;23;19924;-78
2021/04/08 08:48:32;;;;;;;6.68;4.70;;;;;;;9.38;52.14;100607.94;6160907;23;20021;-78
2021/04/08 08:51:12;;;;;;;6.60;4.50;;;;;;;9.59;51.33;100601.69;6161013;23;20031;-77
2021/04/08 08:53:44;;;;;;;8.13;5.40;;;;;;;9.43;52.59;100608.69;6160918;23;20057;-78
2021/04/08 08:56:11;;;;;;;8.75;5.45;;;;;;;9.52;52.02;100592.50;6160304;23;20019;-78
2021/04/08 08:58:44;;;;;;;8.35;4.70;;;;;;;8.96;52.58;100574.63;6160967;23;20010;-77
2021/04/08 09:01:14;;;;;;;6.43;4.50;;;;;;;9.50;50.82;100596.78;6129804;23;20017;-79
2021/04/08 09:03:48;;;;;;;7.72;5.63;;;;;;;9.55;52.98;100605.16;6130726;23;20013;-78
2021/04/08 09:06:23;;;;;;;7.10;5.13;;;;;;;9.63;51.65;100585.56;6131109;23;20360;-80
2021/04/08 09:08:54;;;;;;;8.13;4.72;;;;;;;10.51;49.88;100586.72;6157733;23;20033;-77
2021/04/08 09:12:18;;;;;;;6.38;4.30;;;;;;;9.68;51.35;100609.22;6132984;23;20037;-76
2021/04/08 09:14:48;;;;;;;7.80;5.05;;;;;;;9.80;51.05;100591.25;6130481;23;20016;-75
2021/04/08 09:17:39;;;;;;;8.25;5.30;;;;;;;9.95;51.11;100611.34;6156145;23;20013;-77
2021/04/08 09:20:17;;;;;;;8.48;5.60;;;;;;;10.01;52.85;100615.47;6155787;23;20016;-77
2021/04/08 09:23:06;;;;;;;7.05;5.10;;;;;;;9.47;53.14;100615.41;6155811;23;20025;-77
2021/04/08 09:26:01;;;;;;;11.50;5.90;;;;;;;9.86;54.56;100611.47;6155410;23;20017;-79
2021/04/08 09:28:40;;;;;;;7.00;5.00;;;;;;;10.02;55.10;100617.16;6155646;23;20049;-76
2021/04/08 09:31:24;;;;;;;8.07;5.70;;;;;;;9.54;52.58;100626.31;6155884;23;20029;-77
2021/04/08 09:33:52;;;;;;;10.13;4.53;;;;;;;9.88;53.57;100635.16;6156724;23;20036;-77
2021/04/08 09:36:25;;;;;;;7.47;5.70;;;;;;;10.32;52.52;100632.78;6129073;23;20020;-76
2021/04/08 09:39:06;;;;;;;5.75;4.90;;;;;;;9.44;55.27;100645.91;6129641;23;20014;-76
2021/04/08 09:41:58;;;;;;;7.40;5.15;;;;;;;9.51;54.92;100651.72;6128976;23;20045;-77
2021/04/08 09:44:37;;;;;;;10.10;6.22;;;;;;;9.10;56.39;100638.72;6129124;23;20063;-77
2021/04/08 09:47:12;;;;;;;7.07;5.38;;;;;;;9.18;55.53;100647.06;6129694;23;20013;-77
2021/04/08 09:49:54;;;;;;;12.55;8.23;;;;;;;8.66;58.24;100644.25;6129721;23;20017;-76
2021/04/08 09:52:53;;;;;;;11.52;7.95;;;;;;;8.77;58.43;100653.41;6129749;23;20032;-78
2021/04/08 09:55:38;;;;;;;7.50;4.78;;;;;;;8.32;60.11;100653.00;6129842;23;20118;-76
2021/04/08 09:58:05;;;;;;;7.70;4.38;;;;;;;8.31;59.19;100667.38;6129567;23;20021;-75
2021/04/08 10:01:05;;;;;;;12.23;6.15;;;;;;;8.43;58.96;100662.19;6159211;23;20013;-77
2021/04/08 10:07:45;;;;;;;7.82;4.75;;;;;;;8.15;59.86;100664.91;6160440;23;20016;-79
2021/04/08 10:10:10;;;;;;;6.40;4.80;;;;;;;8.00;59.64;100655.75;6135208;23;20032;-79
2021/04/08 10:12:55;;;;;;;8.18;5.35;;;;;;;8.30;60.33;100674.97;6160723;23;20019;-80
2021/04/08 10:15:58;;;;;;;7.50;5.75;;;;;;;8.15;59.57;100677.56;6163207;23;20036;-80
2021/04/08 10:18:43;;;;;;;8.43;5.45;;;;;;;8.29;59.60;100665.69;6163113;23;20013;-81
2021/04/08 10:21:19;;;;;;;9.45;5.88;;;;;;;8.30;59.12;100675.78;6163793;23;20360;-81
2021/04/08 10:23:55;;;;;;;7.80;5.60;;;;;;;8.34;58.71;100676.63;6163145;23;20024;-80
2021/04/08 10:29:42;;;;;;;9.70;6.33;;;;;;;8.52;58.67;100673.94;6190109;23;20015;-80
2021/04/08 10:35:34;;;;;;;6.45;4.22;;;;;;;8.18;58.97;100692.75;6189464;23;20032;-79
2021/04/08 10:38:15;;;;;;;8.52;5.70;;;;;;;8.50;57.75;100689.16;6163363;23;20041;-79
2021/04/08 10:40:50;;;;;;;10.07;6.18;;;;;;;8.19;58.52;100685.16;6163452;23;20016;-80
2021/04/08 10:43:31;;;;;;;8.73;6.18;;;;;;;8.55;58.33;100687.44;6163316;22;20009;-79
2021/04/08 10:45:59;;;;;;;9.00;5.05;;;;;;;8.43;56.69;100690.06;6189234;23;20009;-79
2021/04/08 10:48:45;;;;;;;8.05;5.53;;;;;;;8.47;57.39;100684.13;6162971;23;20009;-79
2021/04/08 10:51:54;;;;;;;11.32;6.40;;;;;;;9.02;56.71;100689.53;6190059;23;20017;-77
2021/04/08 10:54:39;;;;;;;12.48;7.05;;;;;;;8.89;56.70;100666.84;6163677;22;20345;-77
2021/04/08 10:57:16;;;;;;;10.98;7.32;;;;;;;9.37;57.06;100686.59;6189889;23;20101;-77
2021/04/08 11:00:11;;;;;;;11.52;7.05;;;;;;;9.45;55.90;100683.09;6190139;23;20009;-78
2021/04/08 11:03:16;;;;;;;7.35;5.10;;;;;;;9.05;53.38;100684.41;6190338;23;20028;-77
2021/04/08 11:06:06;;;;;;;7.38;5.22;;;;;;;8.90;55.10;100681.19;6189927;23;20097;-77
2021/04/08 11:08:33;;;;;;;9.88;6.45;;;;;;;9.11;53.72;100679.25;6189925;23;20024;-78
2021/04/08 11:10:58;;;;;;;8.90;5.50;;;;;;;9.35;54.46;100673.06;6189888;23;20033;-79
2021/04/08 11:13:55;;;;;;;8.25;5.60;;;;;;;9.63;53.67;100679.50;6163590;23;20089;-78
2021/04/08 11:16:29;;;;;;;7.50;5.53;;;;;;;9.66;53.66;100699.78;6189852;22;20005;-79
2021/04/08 11:19:14;;;;;;;7.63;5.60;;;;;;;9.66;55.55;100684.53;6190251;23;20017;-77
2021/04/08 11:22:15;;;;;;;6.85;5.18;;;;;;;9.35;54.08;100685.75;6189844;23;20016;-78
2021/04/08 11:25:00;;;;;;;6.85;4.43;;;;;;;10.00;51.37;100685.75;6189539;23;20117;-78
2021/04/08 11:27:36;;;;;;;7.78;5.03;;;;;;;9.39;50.85;100688.25;6189958;23;20371;-77
2021/04/08 11:30:51;;;;;;;7.82;4.75;;;;;;;9.61;50.37;100686.28;6190005;23;20009;-78
2021/04/08 11:36:38;;;;;;;8.75;4.93;;;;;;;9.66;49.05;100671.84;6190172;23;20027;-78
2021/04/08 11:42:36;;;;;;;7.10;4.45;;;;;;;10.28;47.63;100688.78;6189803;23;20391;-77
2021/04/08 11:45:30;;;;;;;7.93;4.50;;;;;;;10.62;46.60;100686.53;6190072;23;20008;-78
2021/04/08 11:48:15;;;;;;;6.32;4.07;;;;;;;10.57;44.78;100686.59;6163741;23;20340;-77
2021/04/08 11:51:03;;;;;;;7.55;4.22;;;;;;;10.67;43.14;100664.41;6163637;23;20243;-77
2021/04/08 11:53:47;;;;;;;8.30;4.90;;;;;;;10.83;42.73;100691.25;6189764;23;20006;-77
2021/04/08 11:56:57;;;;;;;5.50;4.07;;;;;;;10.85;42.68;100686.97;6163598;22;20151;-78
2021/04/08 12:02:44;;;;;;;7.05;4.60;;;;;;;11.75;41.66;100684.34;6190215;23;20129;-78
2021/04/08 12:05:11;;;;;;;5.78;4.05;;;;;;;11.04;41.37;100675.59;6163322;23;20028;-78
2021/04/08 12:08:00;;;;;;;8.40;4.88;;;;;;;11.35;41.65;100674.97;6163515;23;20005;-78
2021/04/08 12:10:29;;;;;;;6.80;4.10;;;;;;;11.11;40.86;100667.81;6188343;23;20023;-79
2021/04/08 12:13:24;;;;;;;6.55;4.30;;;;;;;11.26;38.89;100667.53;6189603;23;20006;-76
2021/04/08 12:16:26;;;;;;;6.25;4.43;;;;;;;11.16;39.33;100657.53;6189441;23;20138;-77
2021/04/08 12:22:18;;;;;;;7.47;4.17;;;;;;;10.64;38.30;100644.09;6189694;23;20063;-77
2021/04/08 12:28:05;;;;;;;8.30;5.15;;;;;;;11.14;39.64;100655.03;6189502;23;20019;-79
2021/04/08 12:33:52;;;;;;;7.80;5.10;;;;;;;11.52;38.19;100648.31;6190677;23;20417;-78
2021/04/08 12:36:30;;;;;;;6.03;4.32;;;;;;;10.97;35.36;100649.41;6189892;23;20024;-78
2021/04/08 12:39:02;;;;;;;6.20;4.40;;;;;;;11.64;34.79;100655.72;6189620;23;20041;-79
2021/04/08 12:41:48;;;;;;;8.45;5.18;;;;;;;11.13;36.35;100660.16;6189091;23;20013;-78
2021/04/08 12:44:50;;;;;;;5.68;4.00;;;;;;;11.07;36.26;100662.81;6163260;23;20023;-79
2021/04/08 12:47:49;;;;;;;7.22;4.50;;;;;;;11.59;37.78;100665.16;6189268;23;20009;-79
2021/04/08 12:51:06;;;;;;;7.25;4.55;;;;;;;11.14;38.25;100661.81;6162930;23;20013;-79
2021/04/08 12:53:31;;;;;;;6.40;4.30;;;;;;;11.41;37.95;100656.19;6163345;22;20029;-79
2021/04/08 12:56:32;;;;;;;10.98;4.80;;;;;;;11.56;38.06;100666.06;6189357;23;20009;-78
2021/04/08 12:59:01;;;;;;;6.25;4.47;;;;;;;11.42;38.96;100657.88;6162774;23;20009;-79
2021/04/08 13:01:27;;;;;;;9.25;5.25;;;;;;;11.10;38.37;100665.28;6163213;23;20024;-79
2021/04/08 13:07:59;;;;;;;8.00;4.82;;;;;;;11.46;38.67;100664.56;6190250;23;20104;-79
2021/04/08 13:11:08;;;;;;;6.70;4.90;;;;;;;11.32;36.99;100669.09;6189415;23;20049;-80
2021/04/08 13:13:40;;;;;;;6.82;4.53;;;;;;;11.79;34.56;100660.50;6159535;23;20252;-79
2021/04/08 13:19:27;;;;;;;6.57;4.35;;;;;;;11.51;35.90;100646.66;6160064;23;20102;-77
2021/04/08 13:25:15;;;;;;;6.90;4.18;;;;;;;11.21;36.48;100650.69;6159153;23;20009;-79
2021/04/08 13:27:51;;;;;;;6.80;4.20;;;;;;;11.79;36.55;100661.34;6159101;23;20031;-79
2021/04/08 13:33:38;;;;;;;5.37;3.97;;;;;;;11.04;36.19;100651.00;6161667;23;20036;-78
2021/04/08 13:36:16;;;;;;;10.55;5.68;;;;;;;11.97;37.37;100652.44;6160875;23;20236;-79
2021/04/08 13:38:56;;;;;;;12.88;7.40;;;;;;;11.70;37.16;100651.38;6134789;23;20017;-78
2021/04/08 13:41:57;;;;;;;10.65;5.45;;;;;;;11.74;37.33;100663.16;6160413;23;20025;-78
2021/04/08 13:45:02;;;;;;;8.38;4.75;;;;;;;11.60;37.00;100661.75;6160348;23;20016;-79
2021/04/08 13:47:49;;;;;;;6.95;4.55;;;;;;;11.46;36.65;100663.72;6134885;23;20021;-79
2021/04/08 13:50:48;;;;;;;6.78;5.22;;;;;;;11.81;35.26;100672.34;6134368;23;20028;-78
2021/04/08 13:56:35;;;;;;;10.48;5.15;;;;;;;11.84;35.65;100657.00;6160617;23;20016;-78
2021/04/08 13:59:31;;;;;;;6.55;4.55;;;;;;;11.37;36.81;100669.84;6160565;23;20014;-79
2021/04/08 14:01:58;;;;;;;28.58;13.45;;;;;;;11.70;36.90;100659.00;6160730;23;20010;-78
2021/04/08 14:04:46;;;;;;;18.42;10.07;;;;;;;11.12;35.40;100673.72;6159267;23;20005;-79
2021/04/08 14:07:11;;;;;;;11.73;5.53;;;;;;;11.27;37.06;100670.88;6160711;23;20095;-78
2021/04/08 14:09:46;;;;;;;11.63;6.25;;;;;;;11.00;36.15;100676.50;6134164;23;20029;-79
2021/04/08 14:12:32;;;;;;;9.80;4.60;;;;;;;10.88;38.23;100681.81;6134608;23;20025;-81
2021/04/08 14:15:18;;;;;;;6.10;4.63;;;;;;;10.87;37.15;100682.69;6160635;23;20045;-77
2021/04/08 14:17:44;;;;;;;8.02;4.80;;;;;;;10.98;37.30;100688.41;6134798;23;20039;-77
2021/04/08 14:20:29;;;;;;;9.98;6.20;;;;;;;11.32;37.52;100689.47;6160325;23;20376;-76
2021/04/08 14:22:59;;;;;;;7.35;3.80;;;;;;;10.94;38.09;100692.72;6129404;23;20028;-77
2021/04/08 14:25:35;;;;;;;16.98;9.30;;;;;;;11.13;37.79;100677.97;6129399;23;20106;-79